Time;durP1;ratioP1;P1;durP2;ratioP2;P2;SDS_P1;SDS_P2;PMS_P1;PMS_P2;Temp;Humidity;BMP_temperature;BMP_pressure;BME280_temperature;BME280_humidity;BME280_pressure;Samples;Min_cycle;Max_cycle;Signal;HPM_P1;HPM_P2
2023/03/27 00:01:10;;;;;;;6.70;4.70;;;10.50;55.80;;;;;;5022561;28;20228;-80
2023/03/27 00:03:37;;;;;;;5.35;3.97;;;10.60;56.00;;;;;;5019821;28;20752;-80
2023/03/27 00:06:08;;;;;;;5.20;4.00;;;10.60;56.10;;;;;;5005475;28;20436;-79
2023/03/27 00:08:35;;;;;;;8.57;4.10;;;10.60;56.10;;;;;;5003570;28;20108;-78
2023/03/27 00:11:02;;;;;;;8.73;4.85;;;10.60;56.10;;;;;;5017365;28;20041;-80
2023/03/27 00:13:29;;;;;;;5.80;3.78;;;10.60;56.20;;;;;;5022241;28;20025;-78
2023/03/27 00:15:56;;;;;;;6.78;4.03;;;10.60;56.20;;;;;;5023252;28;20088;-79
2023/03/27 00:18:27;;;;;;;10.10;4.20;;;10.60;56.20;;;;;;5021473;28;20025;-80
2023/03/27 00:20:53;;;;;;;8.27;4.50;;;10.60;56.20;;;;;;5004338;28;20048;-80
2023/03/27 00:23:21;;;;;;;8.65;4.65;;;10.60;56.20;;;;;;5021414;28;20036;-79
2023/03/27 00:25:51;;;;;;;6.45;4.22;;;10.60;56.20;;;;;;5022991;28;20408;-78
2023/03/27 00:28:17;;;;;;;10.63;5.45;;;10.60;56.20;;;;;;5019461;28;20040;-79
2023/03/27 00:30:44;;;;;;;9.77;5.55;;;10.60;56.30;;;;;;5026112;28;20174;-77
2023/03/27 00:33:13;;;;;;;8.02;4.95;;;10.50;56.10;;;;;;5004069;28;20029;-80
2023/03/27 00:35:45;;;;;;;6.78;4.50;;;10.50;56.10;;;;;;5016836;28;20048;-77
2023/03/27 00:38:12;;;;;;;6.45;3.95;;;10.60;56.30;;;;;;5013235;28;20029;-78
2023/03/27 00:40:38;;;;;;;9.02;4.68;;;10.50;56.10;;;;;;5011219;28;20037;-79
2023/03/27 00:43:26;;;;;;;8.18;4.47;;;10.50;56.20;;;;;;5015556;28;20465;-79
2023/03/27 00:46:14;;;;;;;6.05;3.92;;;10.50;56.30;;;;;;5012474;28;20026;-79
2023/03/27 00:48:42;;;;;;;8.10;4.65;;;10.50;56.30;;;;;;5040927;28;20033;-78
2023/03/27 00:51:09;;;;;;;5.95;4.30;;;10.50;56.20;;;;;;5019640;28;20040;-79
2023/03/27 00:53:35;;;;;;;7.15;4.10;;;10.40;56.10;;;;;;5036735;28;20286;-80
2023/03/27 00:56:04;;;;;;;8.13;4.65;;;10.50;56.30;;;;;;5040905;28;20271;-77
2023/03/27 00:58:38;;;;;;;5.35;4.30;;;10.50;56.30;;;;;;5041754;28;20155;-77
2023/03/27 01:01:06;;;;;;;5.45;3.30;;;10.40;56.10;;;;;;5039788;28;20032;-77
2023/03/27 01:03:32;;;;;;;8.52;3.70;;;10.40;56.10;;;;;;5023572;28;20036;-77
2023/03/27 01:06:03;;;;;;;5.05;3.28;;;10.40;56.10;;;;;;5022593;28;20033;-78
2023/03/27 01:08:35;;;;;;;5.25;2.85;;;10.40;56.10;;;;;;5022117;28;20043;-77
2023/03/27 01:11:23;;;;;;;5.18;3.40;;;10.40;56.10;;;;;;5013856;28;20276;-77
2023/03/27 01:14:09;;;;;;;3.60;2.97;;;10.40;56.10;;;;;;5012150;28;20038;-78
2023/03/27 01:16:44;;;;;;;6.80;3.33;;;10.40;56.10;;;;;;5022057;28;20557;-78
2023/03/27 01:19:47;;;;;;;4.20;2.58;;;10.40;56.00;;;;;;5023906;28;20036;-77
2023/03/27 01:22:33;;;;;;;8.18;3.22;;;10.40;56.10;;;;;;4986644;28;20041;-78
2023/03/27 01:25:14;;;;;;;6.15;3.08;;;10.40;56.00;;;;;;5020412;28;20149;-78
2023/03/27 01:27:53;;;;;;;6.70;3.13;;;10.30;55.90;;;;;;5021435;28;20083;-77
2023/03/27 01:30:30;;;;;;;5.53;2.60;;;10.30;55.90;;;;;;5044914;28;20032;-78
2023/03/27 01:33:00;;;;;;;4.80;2.40;;;10.30;55.90;;;;;;5018126;28;20044;-78
2023/03/27 01:35:59;;;;;;;3.75;2.58;;;10.30;55.90;;;;;;5023089;28;20308;-78
2023/03/27 01:38:50;;;;;;;6.50;2.60;;;10.20;55.80;;;;;;5019318;28;20506;-79
2023/03/27 01:41:25;;;;;;;5.38;2.50;;;10.20;55.80;;;;;;5037296;28;20156;-78
2023/03/27 01:43:54;;;;;;;4.57;2.28;;;10.20;55.80;;;;;;5023222;28;20033;-78
2023/03/27 01:46:28;;;;;;;3.30;2.17;;;10.20;55.80;;;;;;5031604;28;20583;-78
2023/03/27 01:49:00;;;;;;;3.85;2.00;;;10.20;55.90;;;;;;5004878;28;20104;-78
2023/03/27 01:51:35;;;;;;;2.83;1.85;;;10.20;55.90;;;;;;4996824;28;20449;-78
2023/03/27 01:54:04;;;;;;;3.22;1.65;;;10.20;55.90;;;;;;5023556;28;20037;-78
2023/03/27 01:56:39;;;;;;;6.40;1.85;;;10.20;56.00;;;;;;5021765;28;20025;-77
2023/03/27 01:59:15;;;;;;;4.28;1.95;;;10.20;56.10;;;;;;5017534;28;20463;-77
2023/03/27 02:01:47;;;;;;;4.32;2.30;;;10.20;56.10;;;;;;5005748;28;20322;-78
2023/03/27 02:04:19;;;;;;;6.50;2.28;;;10.20;56.10;;;;;;5004796;28;20041;-79
2023/03/27 02:06:58;;;;;;;4.10;1.67;;;10.10;55.90;;;;;;5023702;28;20030;-78
2023/03/27 02:09:32;;;;;;;3.55;1.95;;;10.20;56.10;;;;;;5022149;28;20126;-78
2023/03/27 02:12:19;;;;;;;3.40;1.70;;;10.10;55.90;;;;;;5003827;28;20029;-78
2023/03/27 02:14:53;;;;;;;3.22;1.88;;;10.10;56.00;;;;;;5004470;28;20037;-80
2023/03/27 02:17:24;;;;;;;4.97;2.60;;;10.10;55.90;;;;;;5005239;28;20021;-78
2023/03/27 02:20:06;;;;;;;3.83;1.90;;;10.10;55.90;;;;;;5021975;28;20087;-79
2023/03/27 02:22:32;;;;;;;3.85;1.90;;;10.10;56.00;;;;;;5005210;28;20033;-78
2023/03/27 02:24:59;;;;;;;6.07;2.10;;;10.10;56.00;;;;;;5022495;28;20083;-79
2023/03/27 02:27:41;;;;;;;7.43;2.20;;;10.10;56.00;;;;;;5019349;28;20146;-78
2023/03/27 02:30:21;;;;;;;6.20;2.03;;;10.10;56.10;;;;;;5001423;28;20037;-79
2023/03/27 02:33:13;;;;;;;4.65;1.90;;;10.00;56.00;;;;;;5005089;28;20030;-78
2023/03/27 02:35:52;;;;;;;3.42;1.60;;;10.00;55.90;;;;;;5004246;28;20328;-77
2023/03/27 02:38:31;;;;;;;4.10;2.08;;;10.00;56.00;;;;;;5003303;28;20037;-79
2023/03/27 02:41:21;;;;;;;3.08;1.48;;;10.00;56.00;;;;;;5012896;28;20124;-78
2023/03/27 02:43:56;;;;;;;3.00;1.92;;;10.00;56.10;;;;;;5022942;28;20044;-79
2023/03/27 02:46:42;;;;;;;3.05;1.60;;;9.90;55.90;;;;;;5009479;28;20073;-78
2023/03/27 02:49:16;;;;;;;5.22;1.83;;;9.90;56.00;;;;;;5000893;28;20033;-77
2023/03/27 02:51:56;;;;;;;3.03;1.80;;;9.90;56.00;;;;;;4999693;28;20051;-77
2023/03/27 02:54:32;;;;;;;3.42;1.38;;;9.90;56.10;;;;;;5003857;28;20040;-77
2023/03/27 02:57:04;;;;;;;2.72;1.75;;;9.90;56.20;;;;;;5003802;28;20447;-78
2023/03/27 02:59:55;;;;;;;2.90;1.70;;;9.90;56.20;;;;;;4996114;28;20034;-76
2023/03/27 03:02:28;;;;;;;6.45;1.85;;;9.90;56.30;;;;;;5004786;28;20034;-77
2023/03/27 03:05:11;;;;;;;4.05;1.63;;;9.90;56.20;;;;;;5004322;28;20036;-77
2023/03/27 03:07:38;;;;;;;3.72;1.83;;;9.90;56.30;;;;;;5000452;28;20109;-77
2023/03/27 03:10:07;;;;;;;3.25;1.55;;;9.90;56.20;;;;;;5003944;28;20045;-78
2023/03/27 03:12:34;;;;;;;2.58;1.60;;;9.80;56.10;;;;;;4994780;28;20546;-77
2023/03/27 03:15:00;;;;;;;2.75;1.45;;;9.80;56.10;;;;;;5019024;28;20116;-77
2023/03/27 03:17:25;;;;;;;3.90;1.70;;;9.80;56.20;;;;;;5004523;28;20026;-79
2023/03/27 03:19:52;;;;;;;3.10;1.52;;;9.80;56.20;;;;;;5023155;28;20108;-79
2023/03/27 03:22:18;;;;;;;5.40;1.85;;;9.80;56.20;;;;;;5003926;28;20029;-80
2023/03/27 03:24:44;;;;;;;3.38;2.13;;;9.80;56.20;;;;;;5003161;28;20041;-79
2023/03/27 03:27:14;;;;;;;2.78;1.75;;;9.80;56.20;;;;;;5004041;28;20448;-80
2023/03/27 03:29:49;;;;;;;4.38;1.50;;;9.80;56.30;;;;;;5002032;28;20248;-79
2023/03/27 03:32:18;;;;;;;3.72;1.77;;;9.80;56.30;;;;;;5003922;28;20520;-76
2023/03/27 03:34:46;;;;;;;2.13;1.90;;;9.80;56.30;;;;;;5002877;28;20061;-76
2023/03/27 03:37:14;;;;;;;3.55;2.72;;;9.80;56.90;;;;;;5005655;28;20118;-78
2023/03/27 03:39:40;;;;;;;5.32;1.77;;;9.80;56.40;;;;;;5009301;28;20206;-79
2023/03/27 03:42:06;;;;;;;5.95;2.03;;;9.80;56.80;;;;;;5010953;28;20580;-80
2023/03/27 03:44:33;;;;;;;4.25;2.03;;;9.80;57.00;;;;;;5009085;28;20029;-78
2023/03/27 03:47:07;;;;;;;2.25;1.75;;;9.80;57.10;;;;;;5007435;28;20500;-79
2023/03/27 03:49:33;;;;;;;3.72;2.03;;;9.80;57.10;;;;;;5009368;28;20257;-81
2023/03/27 03:51:59;;;;;;;3.38;1.45;;;9.80;57.00;;;;;;4997320;28;20033;-79
2023/03/27 03:54:28;;;;;;;13.38;2.28;;;9.80;57.00;;;;;;4990597;28;20048;-78
2023/03/27 03:56:54;;;;;;;3.10;1.67;;;9.80;57.00;;;;;;5023061;28;20386;-77
2023/03/27 03:59:20;;;;;;;4.57;2.55;;;9.80;57.60;;;;;;5006231;28;20045;-78
2023/03/27 04:02:26;;;;;;;3.42;1.65;;;9.80;57.10;;;;;;5008884;28;20446;-77
2023/03/27 04:04:58;;;;;;;3.13;1.88;;;9.80;57.00;;;;;;5002613;28;20164;-77
2023/03/27 04:07:30;;;;;;;3.92;1.90;;;9.80;57.00;;;;;;5008341;28;20033;-79
2023/03/27 04:10:15;;;;;;;3.92;1.73;;;9.80;57.00;;;;;;5004007;28;20040;-80
2023/03/27 04:12:46;;;;;;;4.07;2.38;;;9.80;57.00;;;;;;5023546;28;20045;-79
2023/03/27 04:15:17;;;;;;;3.00;1.58;;;9.80;57.00;;;;;;4991440;28;20037;-80
2023/03/27 04:18:01;;;;;;;8.23;2.42;;;9.80;57.00;;;;;;5006475;28;20587;-79
2023/03/27 04:20:27;;;;;;;2.55;1.67;;;9.70;56.80;;;;;;5003569;28;20033;-79
2023/03/27 04:22:55;;;;;;;6.28;2.10;;;9.70;56.80;;;;;;5006987;28;20524;-81
2023/03/27 04:25:23;;;;;;;3.85;2.00;;;9.70;56.80;;;;;;5008020;28;20037;-80
2023/03/27 04:27:50;;;;;;;5.18;2.50;;;9.70;56.80;;;;;;5020699;28;20599;-78
2023/03/27 04:30:30;;;;;;;5.03;1.98;;;9.70;56.80;;;;;;5005124;28;20060;-79
2023/03/27 04:33:17;;;;;;;3.72;2.40;;;9.70;56.80;;;;;;5015942;28;20147;-78
2023/03/27 04:36:10;;;;;;;4.20;2.13;;;9.70;57.30;;;;;;5022973;28;20033;-78
2023/03/27 04:38:55;;;;;;;5.07;2.20;;;9.70;56.70;;;;;;5022424;28;20053;-78
2023/03/27 04:41:21;;;;;;;3.28;2.22;;;9.70;56.70;;;;;;5006554;28;20032;-79
2023/03/27 04:43:47;;;;;;;8.05;3.30;;;9.70;56.70;;;;;;5010247;28;20175;-82
2023/03/27 04:46:13;;;;;;;4.45;1.88;;;9.60;56.50;;;;;;5021946;28;20136;-77
2023/03/27 04:48:41;;;;;;;3.85;2.50;;;9.60;56.50;;;;;;5001360;28;20047;-80
2023/03/27 04:51:21;;;;;;;3.53;2.10;;;9.60;56.50;;;;;;5004515;28;20025;-77
2023/03/27 04:53:47;;;;;;;5.03;2.20;;;9.70;56.70;;;;;;4986795;28;20029;-79
2023/03/27 04:56:14;;;;;;;6.10;2.63;;;9.60;56.50;;;;;;5021841;28;20505;-78
2023/03/27 04:58:45;;;;;;;7.25;2.53;;;9.60;56.50;;;;;;5009409;28;20037;-78
2023/03/27 05:01:13;;;;;;;6.03;2.15;;;9.60;56.50;;;;;;5024583;28;20052;-78
2023/03/27 05:04:09;;;;;;;4.45;2.92;;;9.70;56.60;;;;;;5024579;28;20601;-78
2023/03/27 05:06:43;;;;;;;2.95;1.90;;;9.70;56.50;;;;;;5025370;28;20110;-79
2023/03/27 05:09:12;;;;;;;4.60;1.83;;;9.70;56.50;;;;;;5026399;28;20079;-79
2023/03/27 05:11:39;;;;;;;4.82;2.00;;;9.70;56.50;;;;;;5025411;28;20060;-79
2023/03/27 05:14:07;;;;;;;2.58;1.70;;;9.70;56.50;;;;;;5021376;28;20205;-79
2023/03/27 05:16:35;;;;;;;5.03;2.13;;;9.70;56.50;;;;;;5024048;28;20038;-80
2023/03/27 05:19:03;;;;;;;3.85;1.77;;;9.70;56.40;;;;;;5020617;28;20063;-77
2023/03/27 05:21:37;;;;;;;4.47;2.00;;;9.70;56.40;;;;;;5005749;28;20381;-78
2023/03/27 05:24:08;;;;;;;3.33;1.63;;;9.70;56.40;;;;;;5006937;28;20037;-78
2023/03/27 05:26:34;;;;;;;3.85;1.90;;;9.70;56.40;;;;;;5003704;28;20312;-78
2023/03/27 05:29:00;;;;;;;4.35;1.88;;;9.70;56.40;;;;;;5018703;28;20402;-80
2023/03/27 05:31:28;;;;;;;3.85;1.95;;;9.70;56.40;;;;;;5007812;28;20383;-81
2023/03/27 05:34:14;;;;;;;3.28;2.42;;;9.70;56.40;;;;;;4997952;28;20091;-80
2023/03/27 05:36:43;;;;;;;5.88;2.85;;;9.70;56.30;;;;;;4998025;28;20370;-79
2023/03/27 05:39:10;;;;;;;5.07;2.00;;;9.70;56.30;;;;;;5003244;28;20448;-81
2023/03/27 05:41:40;;;;;;;5.07;2.47;;;9.70;56.30;;;;;;5000871;28;20069;-79
2023/03/27 05:44:07;;;;;;;3.85;1.95;;;9.70;56.40;;;;;;5015784;28;20424;-80
2023/03/27 05:46:36;;;;;;;6.57;2.35;;;9.70;56.40;;;;;;5005287;28;20471;-79
2023/03/27 05:49:21;;;;;;;2.67;1.83;;;9.70;56.40;;;;;;5000974;28;20025;-80
2023/03/27 05:51:52;;;;;;;4.07;1.90;;;9.70;56.40;;;;;;5007937;28;20032;-79
2023/03/27 05:54:22;;;;;;;4.25;1.80;;;9.70;56.40;;;;;;5003914;28;20457;-80
2023/03/27 05:56:56;;;;;;;3.17;1.95;;;9.70;56.40;;;;;;4998163;28;20536;-79
2023/03/27 05:59:23;;;;;;;4.47;2.35;;;9.70;56.40;;;;;;4990577;28;20025;-80
2023/03/27 06:01:57;;;;;;;6.07;3.10;;;9.70;56.50;;;;;;5004376;28;20061;-80
2023/03/27 06:04:29;;;;;;;2.35;1.80;;;9.60;56.30;;;;;;5009091;28;20385;-81
2023/03/27 06:07:02;;;;;;;6.40;2.10;;;9.60;56.30;;;;;;5005193;28;20109;-78
2023/03/27 06:09:30;;;;;;;3.60;2.13;;;9.60;56.30;;;;;;4997256;28;20388;-80
2023/03/27 06:12:19;;;;;;;4.25;1.98;;;9.60;56.30;;;;;;5006394;28;20044;-79
2023/03/27 06:14:47;;;;;;;4.80;2.35;;;9.60;56.30;;;;;;5005232;28;20045;-78
2023/03/27 06:17:38;;;;;;;4.00;2.40;;;9.60;56.30;;;;;;5020490;28;20040;-78
2023/03/27 06:20:10;;;;;;;4.70;2.28;;;9.60;56.30;;;;;;5024837;28;20030;-82
2023/03/27 06:22:54;;;;;;;4.90;2.35;;;9.60;56.20;;;;;;5019424;28;20025;-79
2023/03/27 06:25:33;;;;;;;4.72;2.10;;;9.60;56.20;;;;;;5002604;28;20047;-80
2023/03/27 06:28:00;;;;;;;4.85;2.42;;;9.60;56.20;;;;;;5002921;28;20037;-79
2023/03/27 06:30:29;;;;;;;3.65;2.10;;;9.60;56.20;;;;;;5002034;28;20026;-78
2023/03/27 06:33:18;;;;;;;3.72;1.98;;;9.60;56.10;;;;;;5008087;28;20354;-78
2023/03/27 06:35:45;;;;;;;7.85;2.13;;;9.60;56.20;;;;;;4995623;28;20046;-77
2023/03/27 06:38:16;;;;;;;4.38;1.90;;;9.70;56.60;;;;;;5015958;28;20727;-77
2023/03/27 06:40:43;;;;;;;5.90;2.28;;;9.70;56.70;;;;;;5000144;28;20057;-79
2023/03/27 06:43:10;;;;;;;2.88;1.63;;;9.70;56.60;;;;;;4985028;28;20501;-79
2023/03/27 06:45:49;;;;;;;2.83;1.98;;;9.70;56.60;;;;;;5000743;28;20041;-77
2023/03/27 06:48:54;;;;;;;4.25;2.03;;;9.70;56.60;;;;;;5010547;28;20041;-79
2023/03/27 06:51:21;;;;;;;5.25;2.65;;;9.70;56.60;;;;;;4984346;28;20076;-78
2023/03/27 06:53:49;;;;;;;3.70;2.10;;;9.70;56.60;;;;;;5002837;28;20022;-79
2023/03/27 06:56:16;;;;;;;9.70;2.78;;;9.70;56.60;;;;;;5001101;28;20083;-79
2023/03/27 06:59:05;;;;;;;3.13;1.70;;;9.80;56.70;;;;;;5022394;28;20503;-78
2023/03/27 07:01:32;;;;;;;3.95;1.88;;;9.80;56.60;;;;;;5004066;28;20037;-78
2023/03/27 07:04:18;;;;;;;3.95;2.03;;;9.80;56.50;;;;;;5019132;28;20297;-79
2023/03/27 07:07:04;;;;;;;8.10;2.22;;;9.80;56.40;;;;;;5018958;28;20040;-78
2023/03/27 07:09:34;;;;;;;7.00;2.70;;;9.90;56.50;;;;;;5002393;28;20032;-82
2023/03/27 07:12:08;;;;;;;3.05;1.92;;;10.00;56.50;;;;;;5009243;28;20048;-82
2023/03/27 07:14:34;;;;;;;3.35;2.25;;;10.10;56.60;;;;;;5006370;28;20045;-81
2023/03/27 07:17:01;;;;;;;6.57;2.53;;;10.20;56.50;;;;;;5007146;28;20065;-79
2023/03/27 07:19:45;;;;;;;4.82;2.50;;;10.20;56.90;;;;;;5008193;28;20064;-81
2023/03/27 07:22:12;;;;;;;4.72;2.08;;;10.30;56.30;;;;;;5003543;28;20029;-79
2023/03/27 07:24:39;;;;;;;7.88;1.98;;;10.40;56.30;;;;;;5004318;28;20112;-78
2023/03/27 07:27:06;;;;;;;4.95;2.28;;;10.50;56.30;;;;;;5003640;28;20072;-78
2023/03/27 07:29:35;;;;;;;3.42;1.65;;;10.60;56.20;;;;;;5004490;28;20029;-78
2023/03/27 07:32:02;;;;;;;4.20;2.10;;;10.70;56.20;;;;;;5006058;28;20489;-77
2023/03/27 07:34:33;;;;;;;3.50;2.13;;;10.80;56.10;;;;;;5001821;28;20540;-77
2023/03/27 07:37:18;;;;;;;4.93;2.67;;;10.80;56.00;;;;;;5016536;28;20021;-77
2023/03/27 07:40:05;;;;;;;4.97;2.15;;;10.90;56.00;;;;;;5021832;28;20095;-78
2023/03/27 07:42:35;;;;;;;4.57;2.58;;;10.90;55.80;;;;;;5004041;28;20032;-79
2023/03/27 07:45:04;;;;;;;5.55;2.10;;;11.00;55.90;;;;;;5003496;28;20029;-79
2023/03/27 07:47:31;;;;;;;3.42;1.70;;;11.00;55.80;;;;;;5008615;28;20045;-79
2023/03/27 07:49:58;;;;;;;5.00;2.63;;;11.00;55.80;;;;;;5019811;28;20284;-79
2023/03/27 07:52:24;;;;;;;9.38;3.05;;;11.00;55.90;;;;;;5001446;28;20025;-79
2023/03/27 07:54:59;;;;;;;5.97;2.67;;;11.10;56.30;;;;;;5020345;28;20060;-81
2023/03/27 07:57:37;;;;;;;5.32;2.30;;;11.20;56.60;;;;;;5020653;28;20029;-79
2023/03/27 08:00:11;;;;;;;5.22;2.40;;;11.30;56.90;;;;;;5019212;28;20051;-79
2023/03/27 08:02:45;;;;;;;6.57;2.28;;;11.40;57.00;;;;;;5022275;28;20321;-78
2023/03/27 08:05:13;;;;;;;3.42;2.17;;;11.50;57.10;;;;;;5020675;28;20112;-79
2023/03/27 08:07:44;;;;;;;6.05;2.20;;;11.50;57.00;;;;;;5021052;28;20048;-79
2023/03/27 08:10:11;;;;;;;3.90;2.28;;;11.60;57.20;;;;;;5021413;28;20036;-79
2023/03/27 08:12:50;;;;;;;4.47;2.30;;;11.60;57.30;;;;;;5019828;28;20045;-80
2023/03/27 08:15:17;;;;;;;6.13;2.38;;;11.70;57.50;;;;;;5021728;28;20045;-79
2023/03/27 08:17:44;;;;;;;4.35;2.08;;;11.70;57.70;;;;;;5003396;28;20026;-79
2023/03/27 08:20:14;;;;;;;5.45;2.50;;;11.80;57.90;;;;;;5018410;28;20109;-78
2023/03/27 08:22:46;;;;;;;4.72;2.25;;;11.80;58.00;;;;;;5017594;28;20034;-79
2023/03/27 08:25:34;;;;;;;8.60;2.40;;;11.80;58.10;;;;;;5020414;28;20473;-80
2023/03/27 08:28:05;;;;;;;5.78;2.50;;;11.80;58.10;;;;;;5020392;28;20064;-78
2023/03/27 08:30:31;;;;;;;6.85;2.50;;;11.90;58.40;;;;;;5024377;28;20026;-80
2023/03/27 08:32:59;;;;;;;6.00;2.25;;;11.90;58.40;;;;;;5021531;28;20029;-79
2023/03/27 08:35:25;;;;;;;12.13;3.58;;;11.90;58.40;;;;;;5020740;28;20045;-78
2023/03/27 08:37:52;;;;;;;6.55;2.03;;;12.00;58.70;;;;;;5021035;28;20124;-79
2023/03/27 08:40:37;;;;;;;4.45;2.28;;;12.00;58.60;;;;;;5012779;28;20038;-77
2023/03/27 08:43:41;;;;;;;6.13;2.30;;;12.00;58.60;;;;;;5016546;28;20381;-78
2023/03/27 08:46:39;;;;;;;6.40;2.42;;;12.00;58.60;;;;;;5018933;28;20492;-78
2023/03/27 08:49:20;;;;;;;5.00;2.17;;;12.10;59.50;;;;;;5021049;28;20540;-79
2023/03/27 08:52:20;;;;;;;4.85;1.90;;;12.10;59.00;;;;;;5013638;28;20328;-77
2023/03/27 08:55:19;;;;;;;3.08;1.70;;;12.10;59.00;;;;;;5035917;28;20106;-79
2023/03/27 08:57:51;;;;;;;4.70;2.42;;;12.10;59.00;;;;;;5023543;28;20082;-78
2023/03/27 09:00:30;;;;;;;8.10;2.35;;;12.20;59.10;;;;;;5040087;28;20154;-82
2023/03/27 09:03:21;;;;;;;;;;;12.20;59.20;;;;;;5041297;28;20063;-80
2023/03/27 09:05:52;;;;;;;2.72;1.60;;;12.20;59.10;;;;;;5023585;28;19957;-81
2023/03/27 09:08:34;;;;;;;4.38;2.20;;;12.30;59.10;;;;;;5026907;28;20040;-79
2023/03/27 09:11:45;;;;;;;5.57;1.65;;;12.30;59.10;;;;;;5021311;28;20033;-80
2023/03/27 09:14:22;;;;;;;5.25;1.83;;;12.40;59.20;;;;;;5016361;28;20047;-79
2023/03/27 09:16:50;;;;;;;5.03;1.70;;;12.40;59.10;;;;;;5019661;28;20041;-79
2023/03/27 09:19:43;;;;;;;3.33;2.25;;;12.40;59.00;;;;;;5024612;28;20033;-80
2023/03/27 09:22:23;;;;;;;4.32;1.50;;;12.50;59.10;;;;;;5021364;28;20428;-79
2023/03/27 09:25:27;;;;;;;4.38;2.03;;;12.50;59.10;;;;;;4983568;28;20121;-79
2023/03/27 09:28:34;;;;;;;4.07;3.10;;;12.60;59.20;;;;;;5034968;28;20063;-77
2023/03/27 09:31:28;;;;;;;4.93;2.25;;;12.60;59.10;;;;;;5020791;28;20730;-76
2023/03/27 09:33:58;;;;;;;4.75;1.60;;;12.70;59.20;;;;;;5019043;28;20453;-77
2023/03/27 09:36:24;;;;;;;3.95;1.90;;;12.70;59.00;;;;;;5020584;28;20578;-78
2023/03/27 09:38:57;;;;;;;8.63;1.50;;;12.80;59.10;;;;;;5021840;28;20036;-77
2023/03/27 09:41:33;;;;;;;3.75;1.25;;;12.80;59.10;;;;;;5038088;28;20029;-78
2023/03/27 09:44:24;;;;;;;3.97;1.85;;;12.90;59.20;;;;;;5022833;28;20029;-79
2023/03/27 09:47:14;;;;;;;3.15;1.15;;;13.00;59.30;;;;;;5017891;28;20136;-79
2023/03/27 09:49:52;;;;;;;3.53;2.13;;;13.00;59.20;;;;;;5017864;28;20037;-79
2023/03/27 09:52:40;;;;;;;4.03;1.63;;;13.00;59.10;;;;;;5018768;28;20040;-78
2023/03/27 09:55:29;;;;;;;3.92;1.45;;;13.10;59.10;;;;;;5016506;28;20503;-78
2023/03/27 09:58:12;;;;;;;;;;;13.10;59.10;;;;;;5015861;28;20022;-78
2023/03/27 10:00:41;;;;;;;3.17;1.60;;;13.10;58.90;;;;;;5016901;28;19920;-78
2023/03/27 10:03:16;;;;;;;4.65;1.90;;;13.20;59.00;;;;;;5001492;28;20535;-78
2023/03/27 10:05:43;;;;;;;4.70;2.13;;;13.10;58.70;;;;;;5033749;28;20087;-78
2023/03/27 10:08:45;;;;;;;3.47;1.65;;;13.20;58.80;;;;;;5017664;28;20041;-76
2023/03/27 10:11:26;;;;;;;6.65;2.38;;;13.20;59.20;;;;;;5008494;28;20034;-78
2023/03/27 10:14:12;;;;;;;3.90;1.48;;;13.20;58.60;;;;;;5033567;28;20021;-79
2023/03/27 10:16:42;;;;;;;4.07;1.60;;;13.20;58.50;;;;;;5001761;28;20102;-77
2023/03/27 10:19:19;;;;;;;6.93;1.70;;;13.30;58.60;;;;;;5018026;28;20760;-77
2023/03/27 10:21:47;;;;;;;5.28;1.67;;;13.30;58.40;;;;;;5016064;28;20048;-78
2023/03/27 10:24:32;;;;;;;2.85;1.40;;;13.30;58.30;;;;;;5016978;28;20091;-78
2023/03/27 10:27:33;;;;;;;3.60;1.92;;;13.40;58.30;;;;;;5016461;28;20380;-79
2023/03/27 10:30:26;;;;;;;3.67;1.80;;;13.40;58.20;;;;;;5014272;28;20393;-78
2023/03/27 10:32:55;;;;;;;5.88;1.80;;;13.50;58.10;;;;;;5001542;28;20072;-78
2023/03/27 10:35:47;;;;;;;3.00;1.85;;;13.60;58.10;;;;;;5020512;28;20037;-76
2023/03/27 10:38:22;;;;;;;4.22;1.75;;;13.70;58.10;;;;;;5054274;28;20036;-79
2023/03/27 10:41:13;;;;;;;3.00;1.52;;;13.80;58.20;;;;;;5023431;28;20053;-78
2023/03/27 10:43:48;;;;;;;4.85;1.40;;;13.90;58.00;;;;;;5038226;28;20033;-78
2023/03/27 10:46:19;;;;;;;3.60;1.60;;;14.10;58.10;;;;;;5041137;28;20063;-78
2023/03/27 10:49:02;;;;;;;3.85;1.63;;;14.30;58.10;;;;;;5027268;28;20106;-78
2023/03/27 10:51:55;;;;;;;5.63;1.85;;;14.60;58.10;;;;;;5018557;28;20125;-78
2023/03/27 10:54:46;;;;;;;2.45;1.73;;;14.90;58.00;;;;;;5012757;28;20041;-77
2023/03/27 10:57:29;;;;;;;4.65;1.55;;;15.10;57.70;;;;;;5003199;28;20240;-79
2023/03/27 11:00:17;;;;;;;;;;;15.40;57.50;;;;;;5006173;28;20044;-79
2023/03/27 11:03:08;;;;;;;3.60;2.05;;;15.60;57.40;;;;;;5033387;28;19908;-77
2023/03/27 11:05:37;;;;;;;;;;;15.80;57.30;;;;;;5044507;28;20114;-81
2023/03/27 11:08:37;;;;;;;4.63;2.47;;;15.90;57.20;;;;;;5016281;28;19919;-79
2023/03/27 11:11:24;;;;;;;3.95;2.03;;;16.10;57.40;;;;;;5001319;28;20441;-78
2023/03/27 11:13:55;;;;;;;3.50;2.30;;;16.30;57.60;;;;;;5010983;28;20040;-80
2023/03/27 11:16:27;;;;;;;8.00;3.15;;;16.50;57.70;;;;;;5024154;28;20056;-79
2023/03/27 11:19:21;;;;;;;4.03;1.55;;;16.70;57.90;;;;;;5016982;28;20029;-80
2023/03/27 11:22:21;;;;;;;2.88;1.60;;;16.90;58.20;;;;;;4990578;28;20408;-82
2023/03/27 11:24:58;;;;;;;6.18;2.22;;;17.20;58.40;;;;;;5004825;28;20034;-79
2023/03/27 11:27:26;;;;;;;5.00;2.10;;;17.40;58.30;;;;;;5006121;28;20496;-80
2023/03/27 11:29:59;;;;;;;3.50;1.73;;;17.60;58.10;;;;;;5005935;28;20030;-78
2023/03/27 11:32:45;;;;;;;3.47;1.77;;;17.80;57.90;;;;;;5003278;28;20037;-79
2023/03/27 11:35:21;;;;;;;4.63;1.77;;;18.00;57.70;;;;;;5003372;28;20052;-79
2023/03/27 11:38:40;;;;;;;3.03;1.45;;;18.00;57.30;;;;;;5003975;28;20136;-81
2023/03/27 11:41:11;;;;;;;3.83;1.42;;;18.10;57.10;;;;;;5005905;28;20044;-78
2023/03/27 11:43:39;;;;;;;3.08;1.30;;;18.20;57.20;;;;;;5006436;28;20538;-83
2023/03/27 11:46:13;;;;;;;3.97;1.52;;;18.20;57.10;;;;;;5019475;28;20035;-82
2023/03/27 11:48:47;;;;;;;9.77;2.10;;;18.20;57.00;;;;;;5025052;28;20773;-79
2023/03/27 11:51:42;;;;;;;4.20;2.15;;;18.30;56.90;;;;;;5007632;28;20186;-80
2023/03/27 11:54:27;;;;;;;2.60;1.45;;;18.30;56.70;;;;;;4980764;28;20465;-79
2023/03/27 11:57:01;;;;;;;2.80;1.40;;;18.40;56.70;;;;;;5001907;28;20040;-79
2023/03/27 11:59:54;;;;;;;3.55;1.40;;;18.50;56.70;;;;;;5008971;28;20479;-79
2023/03/27 12:02:55;;;;;;;4.13;1.60;;;18.60;56.50;;;;;;5007118;28;20033;-81
2023/03/27 12:05:51;;;;;;;2.88;1.75;;;18.70;56.50;;;;;;5005847;28;20033;-79
2023/03/27 12:08:48;;;;;;;2.60;1.25;;;18.90;56.10;;;;;;4989996;28;20034;-80
2023/03/27 12:11:17;;;;;;;3.20;1.40;;;19.00;55.80;;;;;;4987577;28;20114;-79
2023/03/27 12:14:28;;;;;;;2.95;1.40;;;19.20;55.90;;;;;;5018016;28;20091;-79
2023/03/27 12:17:15;;;;;;;2.65;1.35;;;19.40;55.40;;;;;;5005262;28;20051;-80
2023/03/27 12:20:18;;;;;;;2.38;1.20;;;19.50;54.90;;;;;;5003031;28;20606;-79
2023/03/27 12:23:24;;;;;;;5.28;2.30;;;19.60;55.00;;;;;;5002207;28;20049;-81
2023/03/27 12:26:40;;;;;;;4.00;1.23;;;19.80;54.90;;;;;;4994868;28;20589;-80
2023/03/27 12:29:48;;;;;;;2.72;1.15;;;19.90;54.40;;;;;;5004075;28;20433;-79
2023/03/27 12:32:41;;;;;;;3.78;1.40;;;20.00;54.40;;;;;;5003561;28;20034;-78
2023/03/27 12:35:16;;;;;;;2.97;1.52;;;20.10;53.70;;;;;;5020043;28;20072;-79
2023/03/27 12:38:07;;;;;;;1.50;1.20;;;20.20;53.80;;;;;;4979437;28;20103;-80
2023/03/27 12:40:46;;;;;;;2.17;1.20;;;20.30;53.50;;;;;;5007259;28;20033;-81
2023/03/27 12:43:20;;;;;;;4.05;1.40;;;20.40;53.20;;;;;;5005085;28;20045;-82
2023/03/27 12:46:09;;;;;;;2.75;1.55;;;20.50;53.00;;;;;;5014699;28;20029;-82
2023/03/27 12:49:09;;;;;;;2.92;1.20;;;20.70;52.60;;;;;;5009500;28;20043;-82
2023/03/27 12:51:53;;;;;;;3.65;1.35;;;20.80;52.60;;;;;;5000311;28;20092;-80
2023/03/27 12:55:18;;;;;;;2.10;1.30;;;21.00;52.70;;;;;;5006573;28;20049;-81
2023/03/27 12:57:56;;;;;;;4.43;1.20;;;21.10;52.10;;;;;;5015414;28;20045;-80
2023/03/27 13:00:58;;;;;;;3.88;2.00;;;21.20;52.40;;;;;;4993622;28;20038;-83
2023/03/27 13:03:50;;;;;;;2.55;1.63;;;21.40;52.30;;;;;;5004262;28;20040;-81
2023/03/27 13:06:26;;;;;;;2.80;1.50;;;21.40;51.90;;;;;;5005727;28;20048;-81
2023/03/27 13:08:57;;;;;;;2.88;1.30;;;21.50;51.80;;;;;;5008947;28;20526;-85
2023/03/27 13:12:03;;;;;;;4.57;1.55;;;21.50;51.70;;;;;;5005816;28;20085;-83
2023/03/27 13:14:42;;;;;;;4.50;1.58;;;21.60;51.40;;;;;;5006564;28;20065;-83
2023/03/27 13:17:34;;;;;;;3.50;1.55;;;21.70;51.40;;;;;;5008568;28;20033;-83
2023/03/27 13:20:13;;;;;;;4.25;1.58;;;21.80;51.10;;;;;;5000896;28;20048;-83
2023/03/27 13:23:27;;;;;;;4.10;1.98;;;21.90;51.00;;;;;;5007751;28;20036;-83
2023/03/27 13:26:14;;;;;;;3.30;1.63;;;21.90;50.50;;;;;;4961435;28;20045;-82
2023/03/27 13:28:51;;;;;;;4.65;2.47;;;21.80;50.40;;;;;;5008737;28;20033;-83
2023/03/27 13:31:46;;;;;;;3.95;1.50;;;21.70;50.10;;;;;;5121215;27;20383;-83
2023/03/27 13:34:37;;;;;;;4.65;2.13;;;21.60;49.60;;;;;;5085101;28;20529;-79
2023/03/27 13:37:10;;;;;;;2.90;1.63;;;21.60;49.70;;;;;;5101965;28;20587;-78
2023/03/27 13:39:47;;;;;;;3.50;1.40;;;21.60;49.90;;;;;;5096782;28;20309;-82
2023/03/27 13:42:25;;;;;;;3.58;1.50;;;21.70;50.20;;;;;;5113531;27;20111;-80
2023/03/27 13:45:16;;;;;;;4.65;2.20;;;21.90;50.20;;;;;;5116277;27;20436;-80